createdAt,value
2023-05-16T00:02:20.107Z,32.73
2023-05-16T00:06:21.933Z,28.73
2023-05-16T00:10:23.109Z,30.80
2023-05-16T00:14:25.588Z,29.80
2023-05-16T00:18:26.722Z,31.70
2023-05-16T00:22:27.860Z,31.07
2023-05-16T00:26:28.953Z,31.17
2023-05-16T00:30:30.123Z,32.73
2023-05-16T00:34:31.316Z,28.90
2023-05-16T00:38:32.540Z,32.87
2023-05-16T00:42:33.709Z,28.93
2023-05-16T00:46:35.413Z,35.90
2023-05-16T00:50:37.189Z,31.07
2023-05-16T00:54:38.466Z,32.20
2023-05-16T00:58:39.871Z,29.37
2023-05-16T01:02:41.516Z,36.53
2023-05-16T01:06:44.914Z,33.73
2023-05-16T01:10:59.071Z,37.80
2023-05-16T01:15:07.089Z,34.97
2023-05-16T01:19:23.951Z,33.53
2023-05-16T01:23:50.535Z,34.30
2023-05-16T01:27:52.286Z,35.47
2023-05-16T01:31:53.536Z,33.80
2023-05-16T01:36:16.727Z,32.70
2023-05-16T01:40:24.708Z,32.53
2023-05-16T01:44:38.941Z,32.37
2023-05-16T01:48:55.269Z,32.03
2023-05-16T01:53:00.026Z,30.63
2023-05-16T01:57:04.064Z,31.53
2023-05-16T02:01:06.352Z,29.80
2023-05-16T02:05:07.889Z,29.30
2023-05-16T02:09:09.173Z,29.37
2023-05-16T02:13:10.426Z,29.83
2023-05-16T02:17:11.624Z,29.20
2023-05-16T02:21:12.852Z,29.77
2023-05-16T02:25:15.416Z,31.23
2023-05-16T02:29:16.599Z,34.63
2023-05-16T02:33:17.832Z,33.20
2023-05-16T02:37:18.993Z,29.70
2023-05-16T02:41:21.657Z,29.13
2023-05-16T02:45:22.718Z,35.03
2023-05-16T02:49:23.866Z,31.43
2023-05-16T02:53:25.016Z,29.60
2023-05-16T02:57:26.177Z,25.90
2023-05-16T03:01:27.353Z,29.60
2023-05-16T03:05:28.749Z,28.53
2023-05-16T03:09:30.162Z,33.57
2023-05-16T03:13:32.315Z,29.67
2023-05-16T03:17:33.616Z,32.53
2023-05-16T03:21:34.987Z,34.13
2023-05-16T03:25:36.944Z,32.40
2023-05-16T03:29:38.117Z,32.17
2023-05-16T03:33:39.287Z,33.10
2023-05-16T03:37:40.425Z,29.87
2023-05-16T03:41:41.578Z,31.23
2023-05-16T03:45:43.193Z,30.00
2023-05-16T03:49:44.323Z,33.83
2023-05-16T03:53:45.475Z,33.10
2023-05-16T03:57:47.244Z,30.03
2023-05-16T04:01:49.809Z,30.17
2023-05-16T04:05:51.773Z,27.80
2023-05-16T04:09:53.961Z,34.10
2023-05-16T04:13:55.171Z,33.00
2023-05-16T04:17:56.321Z,32.23
2023-05-16T04:21:57.477Z,28.40
2023-05-16T04:25:59.454Z,30.07
2023-05-16T04:30:01.160Z,29.10
2023-05-16T04:34:02.914Z,30.83
2023-05-16T04:38:04.062Z,27.90
2023-05-16T04:42:05.899Z,33.10
2023-05-16T04:46:07.275Z,28.73
2023-05-16T04:50:09.305Z,27.93
2023-05-16T04:54:11.320Z,25.67
2023-05-16T04:58:12.481Z,25.10
2023-05-16T05:02:13.692Z,25.40
2023-05-16T05:06:15.817Z,21.87
2023-05-16T05:10:17.015Z,22.20
2023-05-16T05:14:18.271Z,20.63
2023-05-16T05:18:19.474Z,23.87
2023-05-16T05:22:20.582Z,17.80
2023-05-16T05:26:21.992Z,17.20
2023-05-16T05:30:23.278Z,14.70
2023-05-16T05:34:24.448Z,12.17
2023-05-16T05:38:25.853Z,12.73
2023-05-16T05:42:26.913Z,13.40
2023-05-16T05:46:28.451Z,14.40
2023-05-16T05:50:29.574Z,9.87
2023-05-16T05:54:30.742Z,9.53
2023-05-16T05:58:31.897Z,10.00
2023-05-16T06:02:33.121Z,13.47
2023-05-16T06:06:34.349Z,9.67
2023-05-16T06:10:35.520Z,11.73
2023-05-16T06:14:36.666Z,9.90
2023-05-16T06:18:38.004Z,12.03
2023-05-16T06:22:39.281Z,8.00
2023-05-16T06:26:40.487Z,5.47
2023-05-16T06:30:41.615Z,32.50
2023-05-16T06:34:42.902Z,6.80
2023-05-16T06:38:44.572Z,5.40
2023-05-16T06:42:45.682Z,4.50
2023-05-16T06:46:46.946Z,4.20
2023-05-16T06:50:51.506Z,4.13
2023-05-16T06:54:52.761Z,4.87
2023-05-16T06:58:53.956Z,4.90
2023-05-16T07:02:55.249Z,7.27
2023-05-16T07:06:56.657Z,5.13
2023-05-16T07:10:57.990Z,3.90
2023-05-16T07:14:59.171Z,4.10
2023-05-16T07:19:00.654Z,4.33
2023-05-16T07:23:01.850Z,4.50
2023-05-16T07:27:03.317Z,4.53
2023-05-16T07:31:06.230Z,12.00
2023-05-16T07:35:08.832Z,6.20
2023-05-16T07:39:10.040Z,4.87
2023-05-16T07:43:11.245Z,4.20
2023-05-16T07:47:12.592Z,4.13
2023-05-16T07:51:13.806Z,4.30
2023-05-16T07:55:14.989Z,3.70
2023-05-16T07:59:16.336Z,3.60
2023-05-16T08:03:17.962Z,8.10
2023-05-16T08:07:19.358Z,3.70
2023-05-16T08:11:21.867Z,4.47
2023-05-16T08:15:23.204Z,4.00
2023-05-16T08:19:24.530Z,2.97
2023-05-16T08:23:25.826Z,3.30
2023-05-16T08:27:28.108Z,2.90
2023-05-16T08:31:29.372Z,2.63
2023-05-16T08:35:31.045Z,4.57
2023-05-16T08:39:32.279Z,3.80
2023-05-16T08:43:34.622Z,3.77
2023-05-16T08:47:40.547Z,3.43
2023-05-16T08:51:41.742Z,3.43
2023-05-16T08:55:45.379Z,3.77
2023-05-16T08:59:46.714Z,3.83
2023-05-16T09:03:50.606Z,3.00
2023-05-16T09:07:51.932Z,2.87
2023-05-16T09:11:53.120Z,5.03
2023-05-16T09:16:13.009Z,7.13
2023-05-16T09:20:17.894Z,4.13
2023-05-16T09:24:22.939Z,4.57
2023-05-16T09:28:25.880Z,3.80
2023-05-16T09:32:27.201Z,5.13
2023-05-16T09:36:28.426Z,6.10
2023-05-16T09:40:29.778Z,3.73
2023-05-16T09:44:31.766Z,6.73
2023-05-16T09:48:33.010Z,4.57
2023-05-16T09:52:34.354Z,6.30
2023-05-16T09:56:50.867Z,4.77
2023-05-16T10:00:52.569Z,4.70
2023-05-16T10:04:54.194Z,4.80
2023-05-16T10:08:55.632Z,4.30
2023-05-16T10:13:00.661Z,5.20
2023-05-16T10:17:04.702Z,5.60
2023-05-16T10:21:11.208Z,4.67
2023-05-16T10:25:19.518Z,5.17
2023-05-16T10:29:21.594Z,3.60
2023-05-16T10:33:22.904Z,6.67
2023-05-16T10:37:25.040Z,4.53
2023-05-16T10:41:26.275Z,4.47
2023-05-16T10:45:27.975Z,5.23
2023-05-16T10:49:30.631Z,7.87
2023-05-16T10:53:33.821Z,5.40
2023-05-16T10:57:35.826Z,7.90
2023-05-16T11:01:40.310Z,6.17
2023-05-16T11:05:41.788Z,6.40
2023-05-16T11:10:07.159Z,6.00
2023-05-16T11:14:08.745Z,5.87
2023-05-16T11:18:15.657Z,7.43
2023-05-16T11:22:22.779Z,5.40
2023-05-16T11:26:24.135Z,7.60
2023-05-16T11:30:25.350Z,7.83
2023-05-16T11:34:26.779Z,9.40
2023-05-16T11:38:31.588Z,7.93
2023-05-16T11:42:36.118Z,4.37
2023-05-16T11:46:40.403Z,6.50
2023-05-16T11:50:41.676Z,5.70
2023-05-16T11:54:42.907Z,4.37
2023-05-16T11:58:45.123Z,6.87
2023-05-16T12:02:48.056Z,8.13
2023-05-16T12:06:59.109Z,5.00
2023-05-16T12:11:00.332Z,9.07
2023-05-16T12:15:04.077Z,7.90
2023-05-16T12:19:06.408Z,4.80
2023-05-16T12:23:12.019Z,6.90
2023-05-16T12:27:17.063Z,5.73
2023-05-16T12:31:29.979Z,4.00
2023-05-16T12:35:23.830Z,11.47
2023-05-16T12:39:25.560Z,10.27
2023-05-16T12:43:27.909Z,6.43
2023-05-16T12:47:37.412Z,8.20
2023-05-16T12:51:41.611Z,7.40
2023-05-16T12:55:43.628Z,6.10
2023-05-16T12:59:44.907Z,5.10
2023-05-16T13:03:46.189Z,4.70
2023-05-16T13:07:47.417Z,4.90
2023-05-16T13:11:49.897Z,4.53
2023-05-16T13:15:51.149Z,5.23
2023-05-16T13:19:52.565Z,5.60
2023-05-16T13:23:53.780Z,4.73
2023-05-16T13:27:55.120Z,4.20
2023-05-16T13:31:56.397Z,5.23
2023-05-16T13:35:57.862Z,7.93
2023-05-16T13:39:59.309Z,7.20
2023-05-16T13:44:00.803Z,8.03
2023-05-16T13:48:02.099Z,6.37
2023-05-16T13:52:03.585Z,4.10
2023-05-16T13:56:05.245Z,3.10
2023-05-16T14:00:44.322Z,5.90
2023-05-16T14:04:47.805Z,4.47
2023-05-16T14:08:49.164Z,5.30
2023-05-16T14:12:54.834Z,6.67
2023-05-16T14:17:02.817Z,4.93
2023-05-16T14:21:01.715Z,5.70
2023-05-16T14:25:03.192Z,5.00
2023-05-16T14:29:04.460Z,5.60
2023-05-16T14:33:05.819Z,5.70
2023-05-16T14:37:09.091Z,4.67
2023-05-16T14:41:10.328Z,4.77
2023-05-16T14:45:11.613Z,4.87
2023-05-16T14:49:12.732Z,3.80
2023-05-16T14:53:13.942Z,7.23
2023-05-16T14:57:15.150Z,3.80
2023-05-16T15:01:16.621Z,7.57
2023-05-16T15:05:18.989Z,5.70
2023-05-16T15:09:20.839Z,5.00
2023-05-16T15:13:22.048Z,7.33
2023-05-16T15:17:23.310Z,3.70
2023-05-16T15:21:24.467Z,5.67
2023-05-16T15:25:25.953Z,4.63
2023-05-16T15:29:27.155Z,3.90
2023-05-16T15:33:28.241Z,4.23
2023-05-16T15:37:29.615Z,8.90
2023-05-16T15:41:56.430Z,7.40
2023-05-16T15:45:37.932Z,3.83
2023-05-16T15:49:39.008Z,4.57
2023-05-16T15:53:40.427Z,5.03
2023-05-16T15:57:43.256Z,3.90
2023-05-16T16:01:44.633Z,4.83
2023-05-16T16:05:47.389Z,7.37
2023-05-16T16:09:48.665Z,4.00
2023-05-16T16:13:50.376Z,3.40
2023-05-16T16:17:51.633Z,4.17
2023-05-16T16:21:52.825Z,7.37
2023-05-16T16:25:54.010Z,4.93
2023-05-16T16:29:55.359Z,4.20
2023-05-16T16:33:56.559Z,9.03
2023-05-16T16:38:06.314Z,3.03
2023-05-16T16:42:00.773Z,6.33
2023-05-16T16:46:02.006Z,3.77
2023-05-16T16:50:03.387Z,4.10
2023-05-16T16:54:04.504Z,4.43
2023-05-16T16:58:06.014Z,5.67
2023-05-16T17:02:07.288Z,4.70
2023-05-16T17:06:08.496Z,3.10
2023-05-16T17:10:10.617Z,4.97
2023-05-16T17:14:13.428Z,4.30
2023-05-16T17:18:14.938Z,5.17
2023-05-16T17:22:16.131Z,2.97
2023-05-16T17:26:17.352Z,5.03
2023-05-16T17:30:18.971Z,7.63
2023-05-16T17:34:20.341Z,5.63
2023-05-16T17:38:21.652Z,4.17
2023-05-16T17:42:23.019Z,7.33
2023-05-16T17:46:24.280Z,5.70
2023-05-16T17:50:26.140Z,6.03
2023-05-16T17:54:29.488Z,4.30
2023-05-16T17:58:30.892Z,4.83
2023-05-16T18:02:32.302Z,4.70
2023-05-16T18:06:37.129Z,4.27
2023-05-16T18:10:50.977Z,5.10
2023-05-16T18:14:43.815Z,2.97
2023-05-16T18:18:45.042Z,4.47
2023-05-16T18:22:47.327Z,7.63
2023-05-16T18:26:49.712Z,5.93
2023-05-16T18:30:51.224Z,5.53
2023-05-16T18:34:52.784Z,4.70
2023-05-16T18:38:54.929Z,4.90
2023-05-16T18:42:56.700Z,5.40
2023-05-16T18:47:00.480Z,4.77
2023-05-16T18:51:03.167Z,4.20
2023-05-16T18:55:05.304Z,3.60
2023-05-16T18:59:06.728Z,4.30
2023-05-16T19:03:09.239Z,4.90
2023-05-16T19:07:10.479Z,3.93
2023-05-16T19:11:11.772Z,3.60
2023-05-16T19:15:13.017Z,4.20
2023-05-16T19:19:14.550Z,4.50
2023-05-16T19:23:16.388Z,3.67
2023-05-16T19:27:19.613Z,6.00
2023-05-16T19:31:21.101Z,3.90
2023-05-16T19:35:22.786Z,4.53
2023-05-16T19:39:25.664Z,5.40
2023-05-16T19:43:27.030Z,5.93
2023-05-16T19:47:28.567Z,4.57
2023-05-16T19:51:40.793Z,4.93
2023-05-16T19:55:36.459Z,4.13
2023-05-16T19:59:38.482Z,3.50
2023-05-16T20:03:41.056Z,5.20
2023-05-16T20:07:42.368Z,4.50
2023-05-16T20:11:44.595Z,4.30
2023-05-16T20:15:47.169Z,4.20
2023-05-16T20:19:48.540Z,5.10
2023-05-16T20:23:50.031Z,4.53
2023-05-16T20:27:51.363Z,6.23
2023-05-16T20:31:52.730Z,4.67
2023-05-16T20:35:54.010Z,5.03
2023-05-16T20:39:55.595Z,6.63
2023-05-16T20:43:56.921Z,5.90
2023-05-16T20:47:58.540Z,3.80
2023-05-16T20:52:00.250Z,4.80
2023-05-16T20:56:01.652Z,5.90
2023-05-16T21:00:03.607Z,5.27
2023-05-16T21:04:05.333Z,3.63
2023-05-16T21:08:06.739Z,6.80
2023-05-16T21:12:08.348Z,6.57
2023-05-16T21:16:11.721Z,5.27
2023-05-16T21:20:13.444Z,4.87
2023-05-16T21:24:15.439Z,6.33
2023-05-16T21:28:16.966Z,3.90
2023-05-16T21:32:18.537Z,5.50
2023-05-16T21:36:20.539Z,4.47
2023-05-16T21:40:23.907Z,6.03
2023-05-16T21:44:28.116Z,5.70
2023-05-16T21:48:29.752Z,5.07
2023-05-16T21:52:31.339Z,4.57
2023-05-16T21:56:32.769Z,4.97
2023-05-16T22:00:34.184Z,5.00
2023-05-16T22:04:35.661Z,5.03
2023-05-16T22:08:36.922Z,4.93
2023-05-16T22:12:38.747Z,3.33
2023-05-16T22:16:40.094Z,4.70
2023-05-16T22:20:41.285Z,5.37
2023-05-16T22:24:42.528Z,3.97
2023-05-16T22:28:43.711Z,4.43
2023-05-16T22:32:46.078Z,5.43
2023-05-16T22:36:47.317Z,6.17
2023-05-16T22:40:48.647Z,4.67
2023-05-16T22:44:50.123Z,7.73
2023-05-16T22:48:51.449Z,4.20
2023-05-16T22:52:52.662Z,4.17
2023-05-16T22:56:53.873Z,5.67
2023-05-16T23:00:55.207Z,6.07
2023-05-16T23:04:56.488Z,6.80
2023-05-16T23:08:59.713Z,4.80
2023-05-16T23:13:00.959Z,5.67
2023-05-16T23:17:02.185Z,6.67
2023-05-16T23:21:03.562Z,5.63
2023-05-16T23:25:05.745Z,6.90
2023-05-16T23:29:07.129Z,7.50
2023-05-16T23:33:08.419Z,7.53
2023-05-16T23:37:09.621Z,10.30
2023-05-16T23:41:10.807Z,4.40
2023-05-16T23:45:12.063Z,5.63
2023-05-16T23:49:13.284Z,5.07
2023-05-16T23:53:14.628Z,7.07
2023-05-16T23:57:15.811Z,7.43
